sensor_id;sensor_type;location;lat;lon;timestamp;temperature;humidity
15359;DHT22;7779;49.596;11.070;2022-09-09T00:04:30;14.60;67.60
15359;DHT22;7779;49.596;11.070;2022-09-09T00:07:15;14.60;68.00
15359;DHT22;7779;49.596;11.070;2022-09-09T00:10:17;14.60;69.00
15359;DHT22;7779;49.596;11.070;2022-09-09T00:21:45;14.60;68.10
15359;DHT22;7779;49.596;11.070;2022-09-09T00:24:28;14.60;68.50
15359;DHT22;7779;49.596;11.070;2022-09-09T00:27:04;14.60;69.00
15359;DHT22;7779;49.596;11.070;2022-09-09T00:30:17;14.60;68.50
15359;DHT22;7779;49.596;11.070;2022-09-09T00:32:49;14.60;70.00
15359;DHT22;7779;49.596;11.070;2022-09-09T00:35:27;14.60;68.50
15359;DHT22;7779;49.596;11.070;2022-09-09T00:38:00;14.60;68.90
15359;DHT22;7779;49.596;11.070;2022-09-09T00:40:34;14.60;68.50
15359;DHT22;7779;49.596;11.070;2022-09-09T00:43:26;14.70;69.00
15359;DHT22;7779;49.596;11.070;2022-09-09T00:48:29;14.60;68.50
15359;DHT22;7779;49.596;11.070;2022-09-09T00:51:13;14.70;69.00
15359;DHT22;7779;49.596;11.070;2022-09-09T00:54:05;14.70;69.80
15359;DHT22;7779;49.596;11.070;2022-09-09T01:17:26;14.60;68.60
15359;DHT22;7779;49.596;11.070;2022-09-09T01:20:08;14.60;69.90
15359;DHT22;7779;49.596;11.070;2022-09-09T01:23:57;14.60;70.50
15359;DHT22;7779;49.596;11.070;2022-09-09T01:26:18;14.50;69.90
15359;DHT22;7779;49.596;11.070;2022-09-09T01:28:51;14.60;69.50
15359;DHT22;7779;49.596;11.070;2022-09-09T01:31:32;14.60;68.50
15359;DHT22;7779;49.596;11.070;2022-09-09T01:34:04;14.50;69.20
15359;DHT22;7779;49.596;11.070;2022-09-09T01:36:48;14.60;69.10
15359;DHT22;7779;49.596;11.070;2022-09-09T01:39:21;14.60;70.30
15359;DHT22;7779;49.596;11.070;2022-09-09T01:41:55;14.50;70.70
15359;DHT22;7779;49.596;11.070;2022-09-09T01:44:22;14.60;69.40
15359;DHT22;7779;49.596;11.070;2022-09-09T01:46:48;14.50;69.40
15359;DHT22;7779;49.596;11.070;2022-09-09T01:49:17;14.50;70.10
15359;DHT22;7779;49.596;11.070;2022-09-09T01:51:43;14.50;70.90
15359;DHT22;7779;49.596;11.070;2022-09-09T01:54:14;14.60;69.80
15359;DHT22;7779;49.596;11.070;2022-09-09T02:00:04;14.60;71.40
15359;DHT22;7779;49.596;11.070;2022-09-09T02:03:10;14.60;71.20
15359;DHT22;7779;49.596;11.070;2022-09-09T02:08:56;14.70;70.00
15359;DHT22;7779;49.596;11.070;2022-09-09T02:11:29;14.70;69.30
15359;DHT22;7779;49.596;11.070;2022-09-09T02:14:16;14.60;70.20
15359;DHT22;7779;49.596;11.070;2022-09-09T02:17:01;14.70;69.90
15359;DHT22;7779;49.596;11.070;2022-09-09T02:19:56;14.70;69.80
15359;DHT22;7779;49.596;11.070;2022-09-09T02:22:40;14.70;70.90
15359;DHT22;7779;49.596;11.070;2022-09-09T02:25:13;14.70;69.70
15359;DHT22;7779;49.596;11.070;2022-09-09T02:27:45;14.60;69.90
15359;DHT22;7779;49.596;11.070;2022-09-09T02:30:13;14.70;70.20
15359;DHT22;7779;49.596;11.070;2022-09-09T02:32:47;14.70;71.60
15359;DHT22;7779;49.596;11.070;2022-09-09T02:35:23;14.70;70.40
15359;DHT22;7779;49.596;11.070;2022-09-09T02:37:51;14.70;71.00
15359;DHT22;7779;49.596;11.070;2022-09-09T02:40:20;14.70;70.60
15359;DHT22;7779;49.596;11.070;2022-09-09T02:42:54;14.80;72.00
15359;DHT22;7779;49.596;11.070;2022-09-09T02:45:24;14.80;71.30
15359;DHT22;7779;49.596;11.070;2022-09-09T02:48:14;14.80;70.90
15359;DHT22;7779;49.596;11.070;2022-09-09T02:56:17;14.90;71.40
15359;DHT22;7779;49.596;11.070;2022-09-09T02:58:48;14.90;71.30
15359;DHT22;7779;49.596;11.070;2022-09-09T03:01:15;14.90;70.80
15359;DHT22;7779;49.596;11.070;2022-09-09T03:03:41;15.00;71.00
15359;DHT22;7779;49.596;11.070;2022-09-09T03:06:11;15.00;71.00
15359;DHT22;7779;49.596;11.070;2022-09-09T03:08:38;15.00;71.00
15359;DHT22;7779;49.596;11.070;2022-09-09T03:11:04;15.10;71.20
15359;DHT22;7779;49.596;11.070;2022-09-09T03:13:33;15.10;71.10
15359;DHT22;7779;49.596;11.070;2022-09-09T03:15:59;15.10;71.10
15359;DHT22;7779;49.596;11.070;2022-09-09T03:18:26;15.10;70.90
15359;DHT22;7779;49.596;11.070;2022-09-09T03:20:54;15.00;70.70
15359;DHT22;7779;49.596;11.070;2022-09-09T03:23:20;15.20;70.80
15359;DHT22;7779;49.596;11.070;2022-09-09T03:25:48;15.10;70.50
15359;DHT22;7779;49.596;11.070;2022-09-09T03:28:18;15.10;70.40
15359;DHT22;7779;49.596;11.070;2022-09-09T03:30:45;15.10;70.30
15359;DHT22;7779;49.596;11.070;2022-09-09T03:33:10;15.10;71.50
15359;DHT22;7779;49.596;11.070;2022-09-09T03:35:38;15.10;70.30
15359;DHT22;7779;49.596;11.070;2022-09-09T03:38:05;15.10;70.40
15359;DHT22;7779;49.596;11.070;2022-09-09T03:40:33;15.10;70.50
15359;DHT22;7779;49.596;11.070;2022-09-09T03:42:59;15.00;71.60
15359;DHT22;7779;49.596;11.070;2022-09-09T03:45:25;15.00;70.50
15359;DHT22;7779;49.596;11.070;2022-09-09T03:47:51;15.00;70.60
15359;DHT22;7779;49.596;11.070;2022-09-09T03:50:17;15.00;70.70
15359;DHT22;7779;49.596;11.070;2022-09-09T03:52:45;15.00;70.80
15359;DHT22;7779;49.596;11.070;2022-09-09T03:55:18;15.00;70.90
15359;DHT22;7779;49.596;11.070;2022-09-09T03:57:43;15.00;70.90
15359;DHT22;7779;49.596;11.070;2022-09-09T04:00:10;15.00;71.00
15359;DHT22;7779;49.596;11.070;2022-09-09T04:02:42;14.90;72.00
15359;DHT22;7779;49.596;11.070;2022-09-09T04:05:10;14.90;70.90
15359;DHT22;7779;49.596;11.070;2022-09-09T04:07:39;14.90;70.90
15359;DHT22;7779;49.596;11.070;2022-09-09T04:10:06;14.90;70.90
15359;DHT22;7779;49.596;11.070;2022-09-09T04:12:33;14.90;71.00
15359;DHT22;7779;49.596;11.070;2022-09-09T04:15:00;14.90;71.10
15359;DHT22;7779;49.596;11.070;2022-09-09T04:17:27;14.90;71.20
15359;DHT22;7779;49.596;11.070;2022-09-09T04:19:53;15.00;71.30
15359;DHT22;7779;49.596;11.070;2022-09-09T04:22:19;14.90;71.40
15359;DHT22;7779;49.596;11.070;2022-09-09T04:24:46;14.90;71.40
15359;DHT22;7779;49.596;11.070;2022-09-09T04:27:12;14.90;71.50
15359;DHT22;7779;49.596;11.070;2022-09-09T04:29:38;15.00;71.70
15359;DHT22;7779;49.596;11.070;2022-09-09T04:32:04;15.00;71.80
15359;DHT22;7779;49.596;11.070;2022-09-09T04:34:32;15.00;71.90
15359;DHT22;7779;49.596;11.070;2022-09-09T04:36:58;15.00;71.90
15359;DHT22;7779;49.596;11.070;2022-09-09T04:39:26;15.10;72.10
15359;DHT22;7779;49.596;11.070;2022-09-09T04:41:51;15.10;73.10
15359;DHT22;7779;49.596;11.070;2022-09-09T04:44:20;15.10;72.20
15359;DHT22;7779;49.596;11.070;2022-09-09T04:46:46;15.10;72.10
15359;DHT22;7779;49.596;11.070;2022-09-09T04:49:12;15.20;72.20
15359;DHT22;7779;49.596;11.070;2022-09-09T04:51:38;15.20;71.90
15359;DHT22;7779;49.596;11.070;2022-09-09T04:54:04;15.20;72.00
15359;DHT22;7779;49.596;11.070;2022-09-09T04:56:31;15.20;72.00
15359;DHT22;7779;49.596;11.070;2022-09-09T04:58:58;15.20;72.00
15359;DHT22;7779;49.596;11.070;2022-09-09T05:01:34;15.30;71.60
15359;DHT22;7779;49.596;11.070;2022-09-09T05:04:03;15.30;71.90
15359;DHT22;7779;49.596;11.070;2022-09-09T05:06:28;15.30;72.00
15359;DHT22;7779;49.596;11.070;2022-09-09T05:08:58;15.30;72.00
15359;DHT22;7779;49.596;11.070;2022-09-09T05:11:31;15.30;71.50
15359;DHT22;7779;49.596;11.070;2022-09-09T05:14:07;15.40;72.10
15359;DHT22;7779;49.596;11.070;2022-09-09T05:16:34;15.40;72.10
15359;DHT22;7779;49.596;11.070;2022-09-09T05:19:00;15.40;72.10
15359;DHT22;7779;49.596;11.070;2022-09-09T05:21:38;15.40;72.10
15359;DHT22;7779;49.596;11.070;2022-09-09T05:24:05;15.40;72.20
15359;DHT22;7779;49.596;11.070;2022-09-09T05:26:31;15.50;72.40
15359;DHT22;7779;49.596;11.070;2022-09-09T05:28:58;15.50;72.40
15359;DHT22;7779;49.596;11.070;2022-09-09T05:31:26;15.50;72.40
15359;DHT22;7779;49.596;11.070;2022-09-09T05:33:54;15.50;72.50
15359;DHT22;7779;49.596;11.070;2022-09-09T05:36:21;15.50;72.40
15359;DHT22;7779;49.596;11.070;2022-09-09T05:38:51;15.60;72.70
15359;DHT22;7779;49.596;11.070;2022-09-09T05:41:19;15.60;72.70
15359;DHT22;7779;49.596;11.070;2022-09-09T05:43:46;15.60;72.80
15359;DHT22;7779;49.596;11.070;2022-09-09T05:46:18;15.70;72.90
15359;DHT22;7779;49.596;11.070;2022-09-09T05:48:47;15.70;73.10
15359;DHT22;7779;49.596;11.070;2022-09-09T05:51:24;15.80;73.00
15359;DHT22;7779;49.596;11.070;2022-09-09T05:53:52;15.90;73.30
15359;DHT22;7779;49.596;11.070;2022-09-09T05:56:24;15.90;73.00
15359;DHT22;7779;49.596;11.070;2022-09-09T05:58:53;15.90;73.00
15359;DHT22;7779;49.596;11.070;2022-09-09T06:01:21;16.00;73.00
15359;DHT22;7779;49.596;11.070;2022-09-09T06:03:49;16.10;73.20
15359;DHT22;7779;49.596;11.070;2022-09-09T06:06:20;16.20;73.30
15359;DHT22;7779;49.596;11.070;2022-09-09T06:08:53;16.20;73.50
15359;DHT22;7779;49.596;11.070;2022-09-09T06:11:24;16.30;73.50
15359;DHT22;7779;49.596;11.070;2022-09-09T06:13:52;16.40;73.70
15359;DHT22;7779;49.596;11.070;2022-09-09T06:16:22;16.40;73.50
15359;DHT22;7779;49.596;11.070;2022-09-09T06:18:52;16.50;73.60
15359;DHT22;7779;49.596;11.070;2022-09-09T06:21:22;16.60;73.50
15359;DHT22;7779;49.596;11.070;2022-09-09T06:24:08;16.70;73.40
15359;DHT22;7779;49.596;11.070;2022-09-09T06:26:36;16.70;73.10
15359;DHT22;7779;49.596;11.070;2022-09-09T06:29:06;16.80;73.20
15359;DHT22;7779;49.596;11.070;2022-09-09T06:31:34;16.90;73.10
15359;DHT22;7779;49.596;11.070;2022-09-09T06:34:08;17.00;73.10
15359;DHT22;7779;49.596;11.070;2022-09-09T06:36:38;17.10;73.20
15359;DHT22;7779;49.596;11.070;2022-09-09T06:39:05;17.20;73.20
15359;DHT22;7779;49.596;11.070;2022-09-09T06:41:33;17.30;73.10
15359;DHT22;7779;49.596;11.070;2022-09-09T06:44:01;17.40;72.90
15359;DHT22;7779;49.596;11.070;2022-09-09T06:46:33;17.50;72.70
15359;DHT22;7779;49.596;11.070;2022-09-09T06:49:01;17.60;72.60
15359;DHT22;7779;49.596;11.070;2022-09-09T06:51:33;17.80;71.70
15359;DHT22;7779;49.596;11.070;2022-09-09T06:54:03;17.80;72.10
15359;DHT22;7779;49.596;11.070;2022-09-09T06:56:34;17.90;72.00
15359;DHT22;7779;49.596;11.070;2022-09-09T06:59:07;18.00;71.90
15359;DHT22;7779;49.596;11.070;2022-09-09T07:01:37;18.10;71.90
15359;DHT22;7779;49.596;11.070;2022-09-09T07:04:10;18.20;71.80
15359;DHT22;7779;49.596;11.070;2022-09-09T07:06:44;18.30;71.90
15359;DHT22;7779;49.596;11.070;2022-09-09T07:09:15;18.40;71.60
15359;DHT22;7779;49.596;11.070;2022-09-09T07:11:46;18.60;72.10
15359;DHT22;7779;49.596;11.070;2022-09-09T07:14:15;18.70;71.80
15359;DHT22;7779;49.596;11.070;2022-09-09T07:16:45;18.80;71.50
15359;DHT22;7779;49.596;11.070;2022-09-09T07:19:14;19.00;71.20
15359;DHT22;7779;49.596;11.070;2022-09-09T07:21:41;19.10;70.60
15359;DHT22;7779;49.596;11.070;2022-09-09T07:24:10;19.20;70.10
15359;DHT22;7779;49.596;11.070;2022-09-09T07:26:39;19.30;69.60
15359;DHT22;7779;49.596;11.070;2022-09-09T07:29:06;19.40;69.20
15359;DHT22;7779;49.596;11.070;2022-09-09T07:31:35;19.50;68.50
15359;DHT22;7779;49.596;11.070;2022-09-09T07:34:05;19.50;68.90
15359;DHT22;7779;49.596;11.070;2022-09-09T07:36:35;19.60;68.90
15359;DHT22;7779;49.596;11.070;2022-09-09T07:39:07;19.70;68.70
15359;DHT22;7779;49.596;11.070;2022-09-09T07:41:40;20.00;68.00
15359;DHT22;7779;49.596;11.070;2022-09-09T07:44:16;20.00;68.30
15359;DHT22;7779;49.596;11.070;2022-09-09T07:46:47;20.20;67.50
15359;DHT22;7779;49.596;11.070;2022-09-09T07:49:18;20.30;67.60
15359;DHT22;7779;49.596;11.070;2022-09-09T07:51:46;20.40;67.30
15359;DHT22;7779;49.596;11.070;2022-09-09T07:54:16;20.50;66.90
15359;DHT22;7779;49.596;11.070;2022-09-09T07:56:47;20.60;66.80
15359;DHT22;7779;49.596;11.070;2022-09-09T07:59:13;20.70;66.90
15359;DHT22;7779;49.596;11.070;2022-09-09T08:01:45;20.90;66.90
15359;DHT22;7779;49.596;11.070;2022-09-09T08:04:17;21.00;66.60
15359;DHT22;7779;49.596;11.070;2022-09-09T08:06:49;21.20;66.40
15359;DHT22;7779;49.596;11.070;2022-09-09T08:09:19;21.40;66.00
15359;DHT22;7779;49.596;11.070;2022-09-09T08:11:48;21.50;65.50
15359;DHT22;7779;49.596;11.070;2022-09-09T08:14:15;21.60;65.00
15359;DHT22;7779;49.596;11.070;2022-09-09T08:16:47;21.70;64.60
15359;DHT22;7779;49.596;11.070;2022-09-09T08:19:17;21.80;63.80
15359;DHT22;7779;49.596;11.070;2022-09-09T08:21:45;21.80;63.90
15359;DHT22;7779;49.596;11.070;2022-09-09T08:24:12;21.90;63.70
15359;DHT22;7779;49.596;11.070;2022-09-09T08:26:47;22.00;63.70
15359;DHT22;7779;49.596;11.070;2022-09-09T08:29:15;22.00;63.40
15359;DHT22;7779;49.596;11.070;2022-09-09T08:31:45;22.10;63.20
15359;DHT22;7779;49.596;11.070;2022-09-09T08:34:14;22.20;62.80
15359;DHT22;7779;49.596;11.070;2022-09-09T08:36:42;22.30;62.50
15359;DHT22;7779;49.596;11.070;2022-09-09T08:39:13;22.30;62.70
15359;DHT22;7779;49.596;11.070;2022-09-09T08:47:39;22.50;59.80
15359;DHT22;7779;49.596;11.070;2022-09-09T08:50:30;22.50;60.90
15359;DHT22;7779;49.596;11.070;2022-09-09T08:55:54;22.50;60.70
15359;DHT22;7779;49.596;11.070;2022-09-09T08:58:49;22.60;59.80
15359;DHT22;7779;49.596;11.070;2022-09-09T09:01:32;22.60;59.20
15359;DHT22;7779;49.596;11.070;2022-09-09T09:04:32;22.60;59.40
15359;DHT22;7779;49.596;11.070;2022-09-09T09:12:42;22.60;59.50
15359;DHT22;7779;49.596;11.070;2022-09-09T09:15:22;22.70;59.80
15359;DHT22;7779;49.596;11.070;2022-09-09T09:17:53;22.70;59.00
15359;DHT22;7779;49.596;11.070;2022-09-09T09:20:58;22.70;59.80
15359;DHT22;7779;49.596;11.070;2022-09-09T09:23:25;22.80;59.60
15359;DHT22;7779;49.596;11.070;2022-09-09T09:25:59;22.80;59.60
15359;DHT22;7779;49.596;11.070;2022-09-09T09:28:29;23.00;59.60
15359;DHT22;7779;49.596;11.070;2022-09-09T09:31:08;23.00;59.60
15359;DHT22;7779;49.596;11.070;2022-09-09T09:36:10;23.20;59.80
15359;DHT22;7779;49.596;11.070;2022-09-09T09:38:39;23.30;60.00
15359;DHT22;7779;49.596;11.070;2022-09-09T09:41:05;23.40;59.70
15359;DHT22;7779;49.596;11.070;2022-09-09T09:43:37;23.50;59.50
15359;DHT22;7779;49.596;11.070;2022-09-09T09:46:20;23.60;58.90
15359;DHT22;7779;49.596;11.070;2022-09-09T09:49:03;23.70;58.20
15359;DHT22;7779;49.596;11.070;2022-09-09T09:51:32;23.80;57.80
15359;DHT22;7779;49.596;11.070;2022-09-09T09:54:08;24.00;58.70
15359;DHT22;7779;49.596;11.070;2022-09-09T09:56:52;24.00;57.80
15359;DHT22;7779;49.596;11.070;2022-09-09T10:01:53;24.20;56.80
15359;DHT22;7779;49.596;11.070;2022-09-09T10:04:22;24.30;57.70
15359;DHT22;7779;49.596;11.070;2022-09-09T10:06:53;24.40;57.50
15359;DHT22;7779;49.596;11.070;2022-09-09T10:09:28;24.50;57.60
15359;DHT22;7779;49.596;11.070;2022-09-09T10:14:58;24.70;56.40
15359;DHT22;7779;49.596;11.070;2022-09-09T10:17:50;24.80;56.40
15359;DHT22;7779;49.596;11.070;2022-09-09T10:26:50;25.00;56.30
15359;DHT22;7779;49.596;11.070;2022-09-09T10:35:29;25.20;54.60
15359;DHT22;7779;49.596;11.070;2022-09-09T10:38:15;25.10;54.40
15359;DHT22;7779;49.596;11.070;2022-09-09T10:46:44;25.10;53.70
15359;DHT22;7779;49.596;11.070;2022-09-09T10:49:35;25.10;54.20
15359;DHT22;7779;49.596;11.070;2022-09-09T10:52:26;25.10;54.40
15359;DHT22;7779;49.596;11.070;2022-09-09T10:57:48;25.10;54.30
15359;DHT22;7779;49.596;11.070;2022-09-09T11:00:18;25.10;53.70
15359;DHT22;7779;49.596;11.070;2022-09-09T11:05:29;25.00;53.50
15359;DHT22;7779;49.596;11.070;2022-09-09T11:24:49;24.70;52.90
15359;DHT22;7779;49.596;11.070;2022-09-09T11:27:35;24.70;53.40
15359;DHT22;7779;49.596;11.070;2022-09-09T11:33:41;24.70;52.80
15359;DHT22;7779;49.596;11.070;2022-09-09T11:41:49;24.70;52.80
15359;DHT22;7779;49.596;11.070;2022-09-09T11:44:29;24.70;53.30
15359;DHT22;7779;49.596;11.070;2022-09-09T11:46:56;24.70;52.10
15359;DHT22;7779;49.596;11.070;2022-09-09T11:52:42;24.60;52.10
15359;DHT22;7779;49.596;11.070;2022-09-09T11:55:25;24.60;52.80
15359;DHT22;7779;49.596;11.070;2022-09-09T11:58:17;24.60;52.30
15359;DHT22;7779;49.596;11.070;2022-09-09T12:00:48;24.70;51.70
15359;DHT22;7779;49.596;11.070;2022-09-09T12:03:35;24.70;52.40
15359;DHT22;7779;49.596;11.070;2022-09-09T12:06:25;24.70;51.70
15359;DHT22;7779;49.596;11.070;2022-09-09T12:09:19;24.80;52.30
15359;DHT22;7779;49.596;11.070;2022-09-09T12:11:50;24.80;51.60
15359;DHT22;7779;49.596;11.070;2022-09-09T12:14:34;24.90;52.60
15359;DHT22;7779;49.596;11.070;2022-09-09T12:19:41;25.00;50.90
15359;DHT22;7779;49.596;11.070;2022-09-09T12:22:35;25.10;51.70
15359;DHT22;7779;49.596;11.070;2022-09-09T12:25:39;25.20;49.80
15359;DHT22;7779;49.596;11.070;2022-09-09T12:31:31;25.40;51.20
15359;DHT22;7779;49.596;11.070;2022-09-09T12:34:16;25.50;50.70
15359;DHT22;7779;49.596;11.070;2022-09-09T12:36:52;25.60;50.20
15359;DHT22;7779;49.596;11.070;2022-09-09T12:39:37;25.80;50.70
15359;DHT22;7779;49.596;11.070;2022-09-09T12:42:17;25.90;49.80
15359;DHT22;7779;49.596;11.070;2022-09-09T12:44:58;25.90;49.30
15359;DHT22;7779;49.596;11.070;2022-09-09T12:49:58;26.10;49.40
15359;DHT22;7779;49.596;11.070;2022-09-09T12:54:58;26.00;48.40
15359;DHT22;7779;49.596;11.070;2022-09-09T12:57:35;25.90;48.40
15359;DHT22;7779;49.596;11.070;2022-09-09T13:00:16;25.80;47.70
15359;DHT22;7779;49.596;11.070;2022-09-09T13:02:56;25.60;47.40
15359;DHT22;7779;49.596;11.070;2022-09-09T13:05:38;25.40;47.50
15359;DHT22;7779;49.596;11.070;2022-09-09T13:08:06;25.20;47.60
15359;DHT22;7779;49.596;11.070;2022-09-09T13:10:51;24.90;48.60
15359;DHT22;7779;49.596;11.070;2022-09-09T13:13:27;24.70;50.30
15359;DHT22;7779;49.596;11.070;2022-09-09T13:16:05;24.30;50.30
15359;DHT22;7779;49.596;11.070;2022-09-09T13:18:43;24.00;50.50
15359;DHT22;7779;49.596;11.070;2022-09-09T13:21:09;23.60;51.10
15359;DHT22;7779;49.596;11.070;2022-09-09T13:23:36;23.30;51.90
15359;DHT22;7779;49.596;11.070;2022-09-09T13:26:06;22.90;52.50
15359;DHT22;7779;49.596;11.070;2022-09-09T13:28:49;22.60;53.40
15359;DHT22;7779;49.596;11.070;2022-09-09T13:31:44;22.30;54.50
15359;DHT22;7779;49.596;11.070;2022-09-09T13:34:22;22.00;56.70
15359;DHT22;7779;49.596;11.070;2022-09-09T13:36:56;21.80;55.40
15359;DHT22;7779;49.596;11.070;2022-09-09T13:39:26;21.60;56.10
15359;DHT22;7779;49.596;11.070;2022-09-09T13:41:52;21.50;56.60
15359;DHT22;7779;49.596;11.070;2022-09-09T13:44:30;21.40;57.90
15359;DHT22;7779;49.596;11.070;2022-09-09T13:47:02;21.40;58.80
15359;DHT22;7779;49.596;11.070;2022-09-09T13:49:32;21.30;58.00
15359;DHT22;7779;49.596;11.070;2022-09-09T13:52:13;21.20;58.10
15359;DHT22;7779;49.596;11.070;2022-09-09T13:54:41;21.20;59.20
15359;DHT22;7779;49.596;11.070;2022-09-09T13:57:36;21.20;58.60
15359;DHT22;7779;49.596;11.070;2022-09-09T14:00:02;21.10;59.90
15359;DHT22;7779;49.596;11.070;2022-09-09T14:02:29;21.00;58.50
15359;DHT22;7779;49.596;11.070;2022-09-09T14:04:56;21.00;59.00
15359;DHT22;7779;49.596;11.070;2022-09-09T14:07:22;21.00;59.40
15359;DHT22;7779;49.596;11.070;2022-09-09T14:09:48;20.90;59.50
15359;DHT22;7779;49.596;11.070;2022-09-09T14:12:15;20.90;59.90
15359;DHT22;7779;49.596;11.070;2022-09-09T14:14:42;20.80;60.20
15359;DHT22;7779;49.596;11.070;2022-09-09T14:17:08;20.80;60.30
15359;DHT22;7779;49.596;11.070;2022-09-09T14:19:35;20.80;60.50
15359;DHT22;7779;49.596;11.070;2022-09-09T14:22:02;20.80;61.40
15359;DHT22;7779;49.596;11.070;2022-09-09T14:24:28;20.80;60.90
15359;DHT22;7779;49.596;11.070;2022-09-09T14:26:54;20.80;61.00
15359;DHT22;7779;49.596;11.070;2022-09-09T14:29:20;20.90;61.00
15359;DHT22;7779;49.596;11.070;2022-09-09T14:31:46;20.90;61.00
15359;DHT22;7779;49.596;11.070;2022-09-09T14:34:12;20.90;61.00
15359;DHT22;7779;49.596;11.070;2022-09-09T14:36:39;21.00;61.00
15359;DHT22;7779;49.596;11.070;2022-09-09T14:39:07;21.00;60.90
15359;DHT22;7779;49.596;11.070;2022-09-09T14:41:33;21.00;60.80
15359;DHT22;7779;49.596;11.070;2022-09-09T14:43:59;21.10;60.80
15359;DHT22;7779;49.596;11.070;2022-09-09T14:46:25;21.10;60.70
15359;DHT22;7779;49.596;11.070;2022-09-09T14:48:52;21.10;60.70
15359;DHT22;7779;49.596;11.070;2022-09-09T14:51:23;21.10;60.90
15359;DHT22;7779;49.596;11.070;2022-09-09T14:53:54;21.10;61.20
15359;DHT22;7779;49.596;11.070;2022-09-09T14:56:24;21.00;61.20
15359;DHT22;7779;49.596;11.070;2022-09-09T14:58:54;21.00;61.20
15359;DHT22;7779;49.596;11.070;2022-09-09T15:01:20;21.00;62.10
15359;DHT22;7779;49.596;11.070;2022-09-09T15:03:53;21.00;61.80
15359;DHT22;7779;49.596;11.070;2022-09-09T15:06:24;21.00;62.70
15359;DHT22;7779;49.596;11.070;2022-09-09T15:08:52;21.00;62.40
15359;DHT22;7779;49.596;11.070;2022-09-09T15:11:19;21.00;62.40
15359;DHT22;7779;49.596;11.070;2022-09-09T15:13:46;21.00;62.60
15359;DHT22;7779;49.596;11.070;2022-09-09T15:16:17;21.00;62.70
15359;DHT22;7779;49.596;11.070;2022-09-09T15:18:45;21.00;63.30
15359;DHT22;7779;49.596;11.070;2022-09-09T15:21:14;21.00;63.00
15359;DHT22;7779;49.596;11.070;2022-09-09T15:23:42;20.90;63.10
15359;DHT22;7779;49.596;11.070;2022-09-09T15:26:09;21.00;63.30
15359;DHT22;7779;49.596;11.070;2022-09-09T15:28:37;21.00;63.40
15359;DHT22;7779;49.596;11.070;2022-09-09T15:31:13;21.00;63.70
15359;DHT22;7779;49.596;11.070;2022-09-09T15:33:50;21.10;64.00
15359;DHT22;7779;49.596;11.070;2022-09-09T15:36:25;21.10;64.10
15359;DHT22;7779;49.596;11.070;2022-09-09T15:39:03;21.10;63.60
15359;DHT22;7779;49.596;11.070;2022-09-09T15:41:30;21.20;63.60
15359;DHT22;7779;49.596;11.070;2022-09-09T15:44:00;21.20;63.60
15359;DHT22;7779;49.596;11.070;2022-09-09T15:46:30;21.20;63.50
15359;DHT22;7779;49.596;11.070;2022-09-09T15:49:06;21.20;64.00
15359;DHT22;7779;49.596;11.070;2022-09-09T15:51:32;21.20;64.00
15359;DHT22;7779;49.596;11.070;2022-09-09T15:53:59;21.20;63.70
15359;DHT22;7779;49.596;11.070;2022-09-09T15:56:26;21.30;64.00
15359;DHT22;7779;49.596;11.070;2022-09-09T15:58:56;21.20;64.10
15359;DHT22;7779;49.596;11.070;2022-09-09T16:01:24;21.20;64.00
15359;DHT22;7779;49.596;11.070;2022-09-09T16:03:52;21.20;64.00
15359;DHT22;7779;49.596;11.070;2022-09-09T16:06:20;21.20;64.00
15359;DHT22;7779;49.596;11.070;2022-09-09T16:08:50;21.20;64.00
15359;DHT22;7779;49.596;11.070;2022-09-09T16:11:19;21.20;64.00
15359;DHT22;7779;49.596;11.070;2022-09-09T16:13:49;21.20;64.00
15359;DHT22;7779;49.596;11.070;2022-09-09T16:16:18;21.20;63.90
15359;DHT22;7779;49.596;11.070;2022-09-09T16:18:49;21.20;63.90
15359;DHT22;7779;49.596;11.070;2022-09-09T16:21:22;21.10;63.80
15359;DHT22;7779;49.596;11.070;2022-09-09T16:23:51;21.10;63.80
15359;DHT22;7779;49.596;11.070;2022-09-09T16:26:18;21.10;63.60
15359;DHT22;7779;49.596;11.070;2022-09-09T16:28:45;21.10;63.40
15359;DHT22;7779;49.596;11.070;2022-09-09T16:31:17;21.10;63.10
15359;DHT22;7779;49.596;11.070;2022-09-09T16:33:45;21.10;62.60
15359;DHT22;7779;49.596;11.070;2022-09-09T16:36:19;21.10;62.80
15359;DHT22;7779;49.596;11.070;2022-09-09T16:38:48;21.10;62.40
15359;DHT22;7779;49.596;11.070;2022-09-09T16:41:14;21.10;62.30
15359;DHT22;7779;49.596;11.070;2022-09-09T16:43:41;21.10;62.00
15359;DHT22;7779;49.596;11.070;2022-09-09T16:46:18;21.10;61.60
15359;DHT22;7779;49.596;11.070;2022-09-09T16:48:46;21.00;60.90
15359;DHT22;7779;49.596;11.070;2022-09-09T16:51:16;21.10;61.50
15359;DHT22;7779;49.596;11.070;2022-09-09T16:53:43;21.00;61.10
15359;DHT22;7779;49.596;11.070;2022-09-09T16:56:21;21.00;60.90
15359;DHT22;7779;49.596;11.070;2022-09-09T16:59:02;21.00;60.50
15359;DHT22;7779;49.596;11.070;2022-09-09T17:01:33;20.90;60.40
15359;DHT22;7779;49.596;11.070;2022-09-09T17:04:05;20.90;60.50
15359;DHT22;7779;49.596;11.070;2022-09-09T17:06:39;20.90;60.50
15359;DHT22;7779;49.596;11.070;2022-09-09T17:09:09;20.70;60.30
15359;DHT22;7779;49.596;11.070;2022-09-09T17:11:37;20.80;60.40
15359;DHT22;7779;49.596;11.070;2022-09-09T17:14:05;20.70;60.30
15359;DHT22;7779;49.596;11.070;2022-09-09T17:16:35;20.60;60.20
15359;DHT22;7779;49.596;11.070;2022-09-09T17:19:01;20.60;60.20
15359;DHT22;7779;49.596;11.070;2022-09-09T17:21:30;20.50;60.30
15359;DHT22;7779;49.596;11.070;2022-09-09T17:23:56;20.40;60.50
15359;DHT22;7779;49.596;11.070;2022-09-09T17:26:25;20.40;60.60
15359;DHT22;7779;49.596;11.070;2022-09-09T17:28:54;20.30;60.50
15359;DHT22;7779;49.596;11.070;2022-09-09T17:31:24;20.30;60.50
15359;DHT22;7779;49.596;11.070;2022-09-09T17:33:51;20.20;60.40
15359;DHT22;7779;49.596;11.070;2022-09-09T17:36:22;20.20;60.50
15359;DHT22;7779;49.596;11.070;2022-09-09T17:38:51;20.10;60.50
15359;DHT22;7779;49.596;11.070;2022-09-09T17:41:22;20.10;60.60
15359;DHT22;7779;49.596;11.070;2022-09-09T17:43:49;20.00;60.70
15359;DHT22;7779;49.596;11.070;2022-09-09T17:48:45;19.90;60.50
15359;DHT22;7779;49.596;11.070;2022-09-09T17:51:13;19.90;60.60
15359;DHT22;7779;49.596;11.070;2022-09-09T17:53:46;19.90;60.70
15359;DHT22;7779;49.596;11.070;2022-09-09T17:56:16;19.80;60.70
15359;DHT22;7779;49.596;11.070;2022-09-09T17:58:46;19.80;60.80
15359;DHT22;7779;49.596;11.070;2022-09-09T18:01:14;19.80;60.90
15359;DHT22;7779;49.596;11.070;2022-09-09T18:03:44;19.70;61.00
15359;DHT22;7779;49.596;11.070;2022-09-09T18:06:14;19.70;60.90
15359;DHT22;7779;49.596;11.070;2022-09-09T18:08:48;19.60;61.00
15359;DHT22;7779;49.596;11.070;2022-09-09T18:11:20;19.60;61.10
15359;DHT22;7779;49.596;11.070;2022-09-09T18:14:00;19.60;61.20
15359;DHT22;7779;49.596;11.070;2022-09-09T18:16:29;19.50;61.50
15359;DHT22;7779;49.596;11.070;2022-09-09T18:18:57;19.50;61.30